Time,TemperatureF,DewpointF,PressureIn,WindDirection,WindDirectionDegrees,WindSpeedMPH,WindSpeedGustMPH,Humidity,HourlyPrecipIn,Conditions,Clouds,dailyrainin,SoftwareType,DateUTC
2013-05-23 00:00:00,63.0,62.4,29.83,NE,50,0.0,0.0,98,0.00,,---,0.89,VWS V14.01,2013-05-23 04:00:00,
2013-05-23 00:01:00,63.0,62.4,29.83,NE,50,0.0,0.0,98,0.00,,---,0.00,VWS V14.01,2013-05-23 04:01:00,
2013-05-23 00:06:00,63.0,62.4,29.83,NE,50,0.0,1.0,98,0.00,,---,0.00,VWS V14.01,2013-05-23 04:06:00,
2013-05-23 00:11:00,63.0,62.4,29.82,NE,50,2.0,2.0,98,0.00,,---,0.00,VWS V14.01,2013-05-23 04:11:00,
2013-05-23 00:16:00,63.1,62.5,29.82,NE,50,0.0,1.0,98,0.00,,---,0.00,VWS V14.01,2013-05-23 04:16:00,
2013-05-23 00:21:00,63.0,62.4,29.82,NE,50,0.0,0.0,98,0.00,,---,0.00,VWS V14.01,2013-05-23 04:21:00,
2013-05-23 00:26:00,63.0,62.4,29.82,NE,50,0.0,0.0,98,0.00,,---,0.00,VWS V14.01,2013-05-23 04:26:00,
2013-05-23 00:31:00,62.9,62.3,29.81,NE,53,1.0,1.0,98,0.00,,---,0.00,VWS V14.01,2013-05-23 04:31:00,
2013-05-23 00:36:00,62.9,62.3,29.82,SE,141,0.0,0.0,98,0.00,,---,0.00,VWS V14.01,2013-05-23 04:36:00,
2013-05-23 00:41:00,62.9,62.3,29.81,SE,141,0.0,0.0,98,0.00,,---,0.00,VWS V14.01,2013-05-23 04:41:00,
2013-05-23 00:46:00,62.9,62.3,29.81,SE,141,1.0,2.0,98,0.00,,---,0.00,VWS V14.01,2013-05-23 04:46:00,
2013-05-23 00:51:00,62.9,62.3,29.81,SE,141,0.0,0.0,98,0.00,,---,0.00,VWS V14.01,2013-05-23 04:51:00,
2013-05-23 00:56:00,62.9,62.3,29.82,SE,141,0.0,0.0,98,0.00,,---,0.00,VWS V14.01,2013-05-23 04:56:00,
2013-05-23 01:01:00,62.9,62.3,29.82,SE,141,1.0,1.0,98,0.00,,---,0.00,VWS V14.01,2013-05-23 05:01:00,
2013-05-23 01:06:00,63.0,62.4,29.82,SE,141,0.0,1.0,98,0.00,,---,0.00,VWS V14.01,2013-05-23 05:06:00,
2013-05-23 01:11:00,63.0,62.4,29.82,SE,141,0.0,0.0,98,0.00,,---,0.00,VWS V14.01,2013-05-23 05:11:00,
2013-05-23 01:16:00,63.0,62.4,29.82,SE,141,0.0,0.0,98,0.00,,---,0.00,VWS V14.01,2013-05-23 05:16:00,
2013-05-23 01:21:00,63.0,62.7,29.83,SE,141,0.0,0.0,99,0.00,,---,0.00,VWS V14.01,2013-05-23 05:21:00,
2013-05-23 01:26:00,63.0,62.7,29.82,SE,141,0.0,0.0,99,0.00,,---,0.00,VWS V14.01,2013-05-23 05:26:00,
2013-05-23 01:31:00,63.1,62.8,29.82,SE,141,1.0,1.0,99,0.00,,---,0.00,VWS V14.01,2013-05-23 05:31:00,
2013-05-23 01:36:00,63.1,62.8,29.82,SE,141,0.0,0.0,99,0.00,,---,0.00,VWS V14.01,2013-05-23 05:36:00,
2013-05-23 01:41:00,63.1,62.8,29.82,SE,141,0.0,0.0,99,0.00,,---,0.00,VWS V14.01,2013-05-23 05:41:00,
2013-05-23 01:46:00,63.1,62.8,29.82,SE,141,0.0,0.0,99,0.00,,---,0.00,VWS V14.01,2013-05-23 05:46:00,
2013-05-23 01:51:00,63.0,62.7,29.82,SE,141,0.0,2.0,99,0.00,,---,0.00,VWS V14.01,2013-05-23 05:51:00,
2013-05-23 01:56:00,62.9,62.6,29.82,SE,141,0.0,0.0,99,0.00,,---,0.00,VWS V14.01,2013-05-23 05:56:00,
2013-05-23 02:01:00,62.9,62.6,29.82,SE,141,0.0,0.0,99,0.00,,---,0.00,VWS V14.01,2013-05-23 06:01:00,
2013-05-23 02:06:00,63.0,62.7,29.82,SE,141,0.0,0.0,99,0.00,,---,0.00,VWS V14.01,2013-05-23 06:06:00,
2013-05-23 02:11:00,63.0,62.7,29.82,SE,141,0.0,0.0,99,0.00,,---,0.00,VWS V14.01,2013-05-23 06:11:00,
2013-05-23 02:16:00,62.9,62.6,29.82,SE,141,0.0,0.0,99,0.00,,---,0.00,VWS V14.01,2013-05-23 06:16:00,
2013-05-23 02:21:00,62.9,62.6,29.82,SE,141,0.0,1.0,99,0.00,,---,0.00,VWS V14.01,2013-05-23 06:21:00,
2013-05-23 02:26:00,62.9,62.6,29.82,SE,141,1.0,1.0,99,0.00,,---,0.00,VWS V14.01,2013-05-23 06:26:00,
2013-05-23 02:31:00,62.8,62.5,29.82,SE,141,0.0,0.0,99,0.00,,---,0.00,VWS V14.01,2013-05-23 06:31:00,
2013-05-23 02:36:00,62.8,62.5,29.82,SE,141,0.0,0.0,99,0.00,,---,0.00,VWS V14.01,2013-05-23 06:36:00,
2013-05-23 02:41:00,62.7,62.4,29.82,SE,141,0.0,0.0,99,0.00,,---,0.00,VWS V14.01,2013-05-23 06:41:00,
2013-05-23 02:46:00,62.6,62.3,29.82,SE,141,0.0,0.0,99,0.00,,---,0.00,VWS V14.01,2013-05-23 06:46:00,
2013-05-23 02:51:00,62.6,62.3,29.81,SE,141,0.0,0.0,99,0.00,,---,0.00,VWS V14.01,2013-05-23 06:51:00,
2013-05-23 02:56:00,62.5,62.2,29.81,SE,141,0.0,1.0,99,0.00,,---,0.00,VWS V14.01,2013-05-23 06:56:00,
2013-05-23 03:01:00,62.5,62.2,29.81,SE,141,0.0,0.0,99,0.00,,---,0.00,VWS V14.01,2013-05-23 07:01:00,
2013-05-23 03:06:00,62.5,62.2,29.80,SE,141,0.0,0.0,99,0.00,,---,0.00,VWS V14.01,2013-05-23 07:06:00,
2013-05-23 03:11:00,62.4,62.1,29.80,SE,141,0.0,0.0,99,0.00,,---,0.00,VWS V14.01,2013-05-23 07:11:00,
2013-05-23 03:16:00,62.3,62.0,29.80,SE,141,0.0,0.0,99,0.00,,---,0.00,VWS V14.01,2013-05-23 07:16:00,
2013-05-23 03:21:00,62.3,62.0,29.80,SE,141,0.0,0.0,99,0.00,,---,0.00,VWS V14.01,2013-05-23 07:21:00,
2013-05-23 03:26:00,62.2,61.9,29.80,SE,141,0.0,0.0,99,0.00,,---,0.00,VWS V14.01,2013-05-23 07:26:00,
2013-05-23 03:31:00,62.1,61.8,29.80,SE,141,0.0,0.0,99,0.00,,---,0.00,VWS V14.01,2013-05-23 07:31:00,
2013-05-23 03:36:00,62.1,61.8,29.79,SE,141,1.0,1.0,99,0.00,,---,0.00,VWS V14.01,2013-05-23 07:36:00,
2013-05-23 03:41:00,62.2,61.9,29.79,SE,141,3.0,4.0,99,0.00,,---,0.00,VWS V14.01,2013-05-23 07:41:00,
2013-05-23 03:46:00,62.2,61.9,29.80,SE,141,0.0,1.0,99,0.00,,---,0.00,VWS V14.01,2013-05-23 07:46:00,
2013-05-23 03:51:00,62.2,61.9,29.80,SE,141,0.0,0.0,99,0.00,,---,0.00,VWS V14.01,2013-05-23 07:51:00,
2013-05-23 03:56:00,62.2,61.9,29.80,SE,141,0.0,0.0,99,0.00,,---,0.00,VWS V14.01,2013-05-23 07:56:00,
2013-05-23 04:01:00,62.1,61.8,29.80,SE,141,0.0,0.0,99,0.00,,---,0.00,VWS V14.01,2013-05-23 08:01:00,
2013-05-23 04:06:00,62.1,61.8,29.80,SE,141,0.0,0.0,99,0.00,,---,0.00,VWS V14.01,2013-05-23 08:06:00,
2013-05-23 04:11:00,62.0,61.7,29.80,SE,141,0.0,0.0,99,0.00,,---,0.00,VWS V14.01,2013-05-23 08:11:00,
2013-05-23 04:16:00,62.0,61.7,29.80,SE,141,0.0,0.0,99,0.00,,---,0.00,VWS V14.01,2013-05-23 08:16:00,
2013-05-23 04:21:00,61.9,61.6,29.80,SE,141,0.0,0.0,99,0.00,,---,0.00,VWS V14.01,2013-05-23 08:21:00,
2013-05-23 04:26:00,61.9,61.6,29.80,SE,141,0.0,0.0,99,0.00,,---,0.00,VWS V14.01,2013-05-23 08:26:00,
2013-05-23 04:31:00,61.9,61.6,29.80,SE,141,0.0,0.0,99,0.00,,---,0.00,VWS V14.01,2013-05-23 08:31:00,
2013-05-23 04:36:00,61.8,61.5,29.80,SE,141,0.0,0.0,99,0.00,,---,0.00,VWS V14.01,2013-05-23 08:36:00,
2013-05-23 04:41:00,61.8,61.5,29.79,SE,141,1.0,1.0,99,0.00,,---,0.00,VWS V14.01,2013-05-23 08:41:00,
2013-05-23 04:46:00,61.7,61.4,29.80,SE,141,0.0,0.0,99,0.00,,---,0.00,VWS V14.01,2013-05-23 08:46:00,
2013-05-23 04:51:00,61.7,61.4,29.80,SE,141,0.0,0.0,99,0.00,,---,0.00,VWS V14.01,2013-05-23 08:51:00,
2013-05-23 04:56:00,61.7,61.4,29.80,SE,141,0.0,0.0,99,0.00,,---,0.00,VWS V14.01,2013-05-23 08:56:00,
2013-05-23 05:01:00,61.7,61.4,29.80,SE,141,0.0,0.0,99,0.00,,---,0.00,VWS V14.01,2013-05-23 09:01:00,
2013-05-23 05:06:00,61.7,61.4,29.79,SE,141,0.0,0.0,99,0.00,,---,0.00,VWS V14.01,2013-05-23 09:06:00,
2013-05-23 05:11:00,61.7,61.4,29.79,SE,141,0.0,0.0,99,0.00,,---,0.00,VWS V14.01,2013-05-23 09:11:00,
2013-05-23 05:16:00,61.8,61.5,29.79,SE,141,0.0,0.0,99,0.00,,---,0.00,VWS V14.01,2013-05-23 09:16:00,
2013-05-23 05:21:00,61.8,61.5,29.80,SE,141,0.0,0.0,99,0.00,,---,0.00,VWS V14.01,2013-05-23 09:21:00,
2013-05-23 05:26:00,61.8,61.5,29.80,SE,141,0.0,0.0,99,0.00,,---,0.00,VWS V14.01,2013-05-23 09:26:00,
2013-05-23 05:31:00,61.8,61.5,29.80,SE,141,0.0,0.0,99,0.00,,---,0.00,VWS V14.01,2013-05-23 09:31:00,
2013-05-23 05:36:00,61.8,61.5,29.80,SE,141,1.0,1.0,99,0.01,,---,0.01,VWS V14.01,2013-05-23 09:36:00,
2013-05-23 05:41:00,61.8,61.5,29.80,SE,141,0.0,0.0,99,0.01,,---,0.01,VWS V14.01,2013-05-23 09:41:00,
2013-05-23 05:46:00,61.8,61.5,29.80,SE,141,0.0,0.0,99,0.01,,---,0.01,VWS V14.01,2013-05-23 09:46:00,
2013-05-23 05:51:00,61.8,61.5,29.80,SE,141,0.0,0.0,99,0.01,,---,0.01,VWS V14.01,2013-05-23 09:51:00,
2013-05-23 05:56:00,61.8,61.8,29.80,SE,141,0.0,0.0,100,0.01,,---,0.01,VWS V14.01,2013-05-23 09:56:00,
2013-05-23 06:01:00,61.8,61.5,29.81,SE,141,0.0,0.0,99,0.01,,---,0.01,VWS V14.01,2013-05-23 10:01:00,
2013-05-23 06:06:00,61.8,61.5,29.81,SE,141,0.0,1.0,99,0.01,,---,0.01,VWS V14.01,2013-05-23 10:06:00,
2013-05-23 06:11:00,61.7,61.4,29.81,SE,141,0.0,0.0,99,0.01,,---,0.01,VWS V14.01,2013-05-23 10:11:00,
2013-05-23 06:16:00,61.7,61.4,29.81,SE,141,0.0,0.0,99,0.01,,---,0.01,VWS V14.01,2013-05-23 10:16:00,
2013-05-23 06:21:00,61.7,61.4,29.82,SE,141,0.0,0.0,99,0.01,,---,0.01,VWS V14.01,2013-05-23 10:21:00,
2013-05-23 06:26:00,61.6,61.3,29.82,SE,141,0.0,0.0,99,0.01,,---,0.01,VWS V14.01,2013-05-23 10:26:00,
2013-05-23 06:31:00,61.6,61.3,29.82,SE,141,0.0,0.0,99,0.01,,---,0.01,VWS V14.01,2013-05-23 10:31:00,
2013-05-23 06:36:00,61.6,61.3,29.82,SE,141,0.0,0.0,99,0.01,,---,0.02,VWS V14.01,2013-05-23 10:36:00,
2013-05-23 06:41:00,61.6,61.3,29.82,SE,141,0.0,0.0,99,0.01,,---,0.02,VWS V14.01,2013-05-23 10:41:00,
2013-05-23 06:46:00,61.6,61.3,29.82,SE,141,0.0,0.0,99,0.01,,---,0.02,VWS V14.01,2013-05-23 10:46:00,
2013-05-23 06:51:00,61.6,61.3,29.82,SE,141,0.0,0.0,99,0.02,,---,0.03,VWS V14.01,2013-05-23 10:51:00,
2013-05-23 06:56:00,61.7,61.4,29.82,SE,141,0.0,0.0,99,0.02,,---,0.03,VWS V14.01,2013-05-23 10:56:00,
2013-05-23 07:01:00,61.7,61.4,29.82,SE,141,0.0,0.0,99,0.02,,---,0.03,VWS V14.01,2013-05-23 11:01:00,
2013-05-23 07:06:00,61.7,61.4,29.82,SE,141,0.0,0.0,99,0.03,,---,0.04,VWS V14.01,2013-05-23 11:06:00,
2013-05-23 07:11:00,61.8,61.8,29.82,SE,141,0.0,0.0,100,0.03,,---,0.04,VWS V14.01,2013-05-23 11:11:00,
2013-05-23 07:16:00,61.8,61.8,29.82,SE,141,0.0,0.0,100,0.03,,---,0.04,VWS V14.01,2013-05-23 11:16:00,
2013-05-23 07:21:00,61.9,61.9,29.83,SE,141,0.0,0.0,100,0.03,,---,0.04,VWS V14.01,2013-05-23 11:21:00,
2013-05-23 07:26:00,62.0,62.0,29.82,SE,141,0.0,0.0,100,0.03,,---,0.04,VWS V14.01,2013-05-23 11:26:00,
2013-05-23 07:31:00,62.1,62.1,29.82,SE,141,0.0,0.0,100,0.03,,---,0.04,VWS V14.01,2013-05-23 11:31:00,
2013-05-23 07:36:00,62.3,62.3,29.83,SE,141,0.0,0.0,100,0.02,,---,0.04,VWS V14.01,2013-05-23 11:36:00,
2013-05-23 07:41:00,62.5,62.5,29.83,SE,141,0.0,0.0,100,0.03,,---,0.05,VWS V14.01,2013-05-23 11:41:00,
2013-05-23 07:46:00,62.6,62.6,29.83,SE,141,0.0,0.0,100,0.03,,---,0.05,VWS V14.01,2013-05-23 11:46:00,
2013-05-23 07:51:00,62.8,62.8,29.83,SE,141,0.0,0.0,100,0.02,,---,0.05,VWS V14.01,2013-05-23 11:51:00,
2013-05-23 07:56:00,62.9,62.9,29.83,SE,141,0.0,0.0,100,0.02,,---,0.05,VWS V14.01,2013-05-23 11:56:00,
2013-05-23 08:01:00,62.9,62.9,29.82,SE,141,0.0,0.0,100,0.02,,---,0.05,VWS V14.01,2013-05-23 12:01:00,
2013-05-23 08:06:00,62.7,62.7,29.82,SE,141,0.0,0.0,100,0.01,,---,0.05,VWS V14.01,2013-05-23 12:06:00,
2013-05-23 08:11:00,62.9,62.9,29.83,SE,141,0.0,0.0,100,0.01,,---,0.05,VWS V14.01,2013-05-23 12:11:00,
2013-05-23 08:16:00,63.2,63.2,29.82,SE,141,0.0,0.0,100,0.01,,---,0.05,VWS V14.01,2013-05-23 12:16:00,
2013-05-23 08:21:00,63.4,63.4,29.83,SE,141,0.0,0.0,100,0.01,,---,0.05,VWS V14.01,2013-05-23 12:21:00,
2013-05-23 08:26:00,63.3,63.3,29.82,SE,141,0.0,0.0,100,0.01,,---,0.05,VWS V14.01,2013-05-23 12:26:00,
2013-05-23 08:31:00,63.2,63.2,29.82,SE,141,0.0,0.0,100,0.01,,---,0.05,VWS V14.01,2013-05-23 12:31:00,
2013-05-23 08:36:00,63.3,63.3,29.82,SE,141,0.0,1.0,100,0.01,,---,0.05,VWS V14.01,2013-05-23 12:36:00,
2013-05-23 08:41:00,63.4,63.4,29.83,SE,141,0.0,1.0,100,0.00,,---,0.05,VWS V14.01,2013-05-23 12:41:00,
2013-05-23 08:46:00,63.6,63.6,29.83,SE,141,0.0,0.0,100,0.00,,---,0.05,VWS V14.01,2013-05-23 12:46:00,
2013-05-23 08:51:00,63.6,63.6,29.83,SE,141,0.0,0.0,100,0.00,,---,0.05,VWS V14.01,2013-05-23 12:51:00,
2013-05-23 08:56:00,63.6,63.6,29.83,SE,141,0.0,1.0,100,0.00,,---,0.05,VWS V14.01,2013-05-23 12:56:00,
2013-05-23 09:01:00,63.8,63.8,29.83,SE,141,1.0,1.0,100,0.00,,---,0.05,VWS V14.01,2013-05-23 13:01:00,
2013-05-23 09:06:00,64.0,64.0,29.83,SE,141,0.0,0.0,100,0.00,,---,0.05,VWS V14.01,2013-05-23 13:06:00,
2013-05-23 09:11:00,64.2,64.2,29.83,SE,141,0.0,0.0,100,0.00,,---,0.05,VWS V14.01,2013-05-23 13:11:00,
2013-05-23 09:16:00,64.2,63.9,29.83,SE,141,0.0,0.0,99,0.00,,---,0.05,VWS V14.01,2013-05-23 13:16:00,
2013-05-23 09:21:00,64.2,63.9,29.83,SE,141,0.0,0.0,99,0.00,,---,0.05,VWS V14.01,2013-05-23 13:21:00,
2013-05-23 09:26:00,64.2,63.9,29.83,SE,141,0.0,0.0,99,0.00,,---,0.05,VWS V14.01,2013-05-23 13:26:00,
2013-05-23 09:31:00,64.3,64.0,29.83,SE,141,0.0,0.0,99,0.00,,---,0.05,VWS V14.01,2013-05-23 13:31:00,
2013-05-23 09:36:00,64.5,64.2,29.83,SE,141,0.0,0.0,99,0.00,,---,0.05,VWS V14.01,2013-05-23 13:36:00,
2013-05-23 09:41:00,64.7,64.1,29.83,SE,141,1.0,1.0,98,0.00,,---,0.05,VWS V14.01,2013-05-23 13:41:00,
2013-05-23 09:46:00,65.0,64.7,29.83,SE,141,0.0,0.0,99,0.00,,---,0.05,VWS V14.01,2013-05-23 13:46:00,
2013-05-23 09:51:00,65.2,64.9,29.83,SE,141,0.0,0.0,99,0.00,,---,0.05,VWS V14.01,2013-05-23 13:51:00,
2013-05-23 09:56:00,65.3,64.7,29.83,SE,141,0.0,0.0,98,0.00,,---,0.05,VWS V14.01,2013-05-23 13:56:00,
2013-05-23 10:01:00,65.4,64.8,29.83,SE,141,0.0,0.0,98,0.00,,---,0.05,VWS V14.01,2013-05-23 14:01:00,
2013-05-23 10:06:00,65.5,64.6,29.83,SE,141,0.0,0.0,97,0.00,,---,0.05,VWS V14.01,2013-05-23 14:06:00,
2013-05-23 10:11:00,65.7,64.8,29.83,SE,141,0.0,0.0,97,0.00,,---,0.05,VWS V14.01,2013-05-23 14:11:00,
2013-05-23 10:16:00,65.9,64.7,29.83,SE,141,0.0,0.0,96,0.00,,---,0.05,VWS V14.01,2013-05-23 14:16:00,
2013-05-23 10:21:00,66.1,64.9,29.83,SE,141,0.0,1.0,96,0.00,,---,0.05,VWS V14.01,2013-05-23 14:21:00,
2013-05-23 10:26:00,66.2,64.7,29.83,SE,141,0.0,0.0,95,0.00,,---,0.05,VWS V14.01,2013-05-23 14:26:00,
2013-05-23 10:31:00,66.3,64.5,29.83,SE,141,0.0,0.0,94,0.00,,---,0.05,VWS V14.01,2013-05-23 14:31:00,
2013-05-23 10:36:00,66.6,64.8,29.83,SE,141,2.0,2.0,94,0.00,,---,0.05,VWS V14.01,2013-05-23 14:36:00,
2013-05-23 10:41:00,67.0,64.9,29.83,SE,141,1.0,2.0,93,0.00,,---,0.05,VWS V14.01,2013-05-23 14:41:00,
2013-05-23 10:46:00,67.4,65.6,29.83,SE,141,1.0,1.0,94,0.00,,---,0.05,VWS V14.01,2013-05-23 14:46:00,
2013-05-23 10:51:00,67.7,65.0,29.83,SE,141,0.0,0.0,91,0.00,,---,0.05,VWS V14.01,2013-05-23 14:51:00,
2013-05-23 10:56:00,68.7,67.2,29.83,SE,144,1.0,2.0,95,0.00,,---,0.05,VWS V14.01,2013-05-23 14:56:00,
2013-05-23 11:01:00,69.9,67.5,29.83,NW,324,2.0,2.0,92,0.00,,---,0.05,VWS V14.01,2013-05-23 15:01:00,
2013-05-23 11:06:00,70.6,67.5,29.83,West,270,2.0,3.0,90,0.00,,---,0.05,VWS V14.01,2013-05-23 15:06:00,
2013-05-23 11:11:00,70.8,66.1,29.83,West,281,4.0,4.0,85,0.00,,---,0.05,VWS V14.01,2013-05-23 15:11:00,
2013-05-23 11:16:00,70.9,66.5,29.83,West,275,1.0,3.0,86,0.00,,---,0.05,VWS V14.01,2013-05-23 15:16:00,
2013-05-23 11:21:00,71.3,65.9,29.83,West,275,1.0,3.0,83,0.00,,---,0.05,VWS V14.01,2013-05-23 15:21:00,
2013-05-23 11:26:00,71.8,66.0,29.83,WNW,290,3.0,3.0,82,0.00,,---,0.05,VWS V14.01,2013-05-23 15:26:00,
2013-05-23 11:31:00,72.2,66.1,29.83,WNW,284,4.0,4.0,81,0.00,,---,0.05,VWS V14.01,2013-05-23 15:31:00,
2013-05-23 11:36:00,72.6,66.8,29.82,WNW,294,3.0,4.0,82,0.00,,---,0.05,VWS V14.01,2013-05-23 15:36:00,
2013-05-23 11:41:00,73.1,66.2,29.83,WNW,284,4.0,7.0,79,0.00,,---,0.05,VWS V14.01,2013-05-23 15:41:00,
2013-05-23 11:46:00,73.2,66.3,29.82,West,281,2.0,4.0,79,0.00,,---,0.05,VWS V14.01,2013-05-23 15:46:00,
2013-05-23 11:51:00,73.4,66.5,29.82,West,265,6.0,6.0,79,0.00,,---,0.05,VWS V14.01,2013-05-23 15:51:00,
2013-05-23 11:56:00,73.9,66.2,29.82,SW,227,0.0,3.0,77,0.00,,---,0.05,VWS V14.01,2013-05-23 15:56:00,
2013-05-23 12:01:00,74.1,65.7,29.82,NW,310,3.0,5.0,75,0.00,,---,0.05,VWS V14.01,2013-05-23 16:01:00,
2013-05-23 12:06:00,74.4,67.1,29.82,WSW,245,3.0,3.0,78,0.00,,---,0.05,VWS V14.01,2013-05-23 16:06:00,
2013-05-23 12:11:00,74.9,66.1,29.82,NW,313,6.0,6.0,74,0.00,,---,0.05,VWS V14.01,2013-05-23 16:11:00,
2013-05-23 12:16:00,74.9,64.1,29.82,WNW,294,5.0,6.0,69,0.00,,---,0.05,VWS V14.01,2013-05-23 16:16:00,
2013-05-23 12:21:00,75.0,64.2,29.82,NW,314,4.0,5.0,69,0.00,,---,0.05,VWS V14.01,2013-05-23 16:21:00,
2013-05-23 12:26:00,75.1,65.1,29.82,WNW,301,2.0,2.0,71,0.00,,---,0.05,VWS V14.01,2013-05-23 16:26:00,
2013-05-23 12:31:00,75.1,64.7,29.82,WSW,255,6.0,6.0,70,0.00,,---,0.05,VWS V14.01,2013-05-23 16:31:00,
2013-05-23 12:36:00,75.3,64.8,29.81,WSW,245,3.0,5.0,70,0.00,,---,0.05,VWS V14.01,2013-05-23 16:36:00,
2013-05-23 12:41:00,75.5,64.6,29.81,WNW,285,5.0,5.0,69,0.00,,---,0.05,VWS V14.01,2013-05-23 16:41:00,
2013-05-23 12:46:00,75.4,64.9,29.81,West,279,8.0,8.0,70,0.00,,---,0.05,VWS V14.01,2013-05-23 16:46:00,
2013-05-23 12:51:00,74.8,64.0,29.81,WSW,242,3.0,5.0,69,0.00,,---,0.05,VWS V14.01,2013-05-23 16:51:00,
2013-05-23 12:56:00,74.0,64.0,29.81,West,271,1.0,2.0,71,0.00,,---,0.05,VWS V14.01,2013-05-23 16:56:00,
2013-05-23 13:01:00,74.1,65.3,29.81,West,273,1.0,1.0,74,0.00,,---,0.05,VWS V14.01,2013-05-23 17:01:00,
2013-05-23 13:06:00,74.6,63.8,29.80,West,261,2.0,4.0,69,0.00,,---,0.05,VWS V14.01,2013-05-23 17:06:00,
2013-05-23 13:11:00,75.1,64.7,29.80,West,268,3.0,4.0,70,0.00,,---,0.05,VWS V14.01,2013-05-23 17:11:00,
2013-05-23 13:16:00,75.8,63.2,29.80,SSW,213,4.0,4.0,65,0.00,,---,0.05,VWS V14.01,2013-05-23 17:16:00,
2013-05-23 13:21:00,76.7,65.3,29.79,West,275,2.0,3.0,68,0.00,,---,0.05,VWS V14.01,2013-05-23 17:21:00,
2013-05-23 13:26:00,77.6,65.3,29.79,WNW,284,3.0,4.0,66,0.00,,---,0.05,VWS V14.01,2013-05-23 17:26:00,
2013-05-23 13:31:00,77.8,63.3,29.79,West,270,3.0,5.0,61,0.00,,---,0.05,VWS V14.01,2013-05-23 17:31:00,
2013-05-23 13:36:00,77.1,64.4,29.79,West,281,4.0,4.0,65,0.00,,---,0.05,VWS V14.01,2013-05-23 17:36:00,
2013-05-23 13:41:00,76.6,62.2,29.79,NW,319,2.0,4.0,61,0.00,,---,0.05,VWS V14.01,2013-05-23 17:41:00,
2013-05-23 13:46:00,77.1,63.1,29.79,West,273,6.0,6.0,62,0.00,,---,0.05,VWS V14.01,2013-05-23 17:46:00,
2013-05-23 13:51:00,77.2,61.8,29.78,West,276,5.0,5.0,59,0.00,,---,0.05,VWS V14.01,2013-05-23 17:51:00,
2013-05-23 13:56:00,77.5,62.5,29.78,WSW,248,4.0,4.0,60,0.00,,---,0.05,VWS V14.01,2013-05-23 17:56:00,
2013-05-23 14:01:00,77.8,63.3,29.77,West,267,2.0,2.0,61,0.00,,---,0.05,VWS V14.01,2013-05-23 18:01:00,
2013-05-23 14:06:00,78.0,65.7,29.77,West,269,3.0,5.0,66,0.00,,---,0.05,VWS V14.01,2013-05-23 18:06:00,
2013-05-23 14:11:00,78.2,63.7,29.77,NW,306,4.0,5.0,61,0.00,,---,0.05,VWS V14.01,2013-05-23 18:11:00,
2013-05-23 14:16:00,78.1,63.1,29.77,WNW,293,4.0,4.0,60,0.00,,---,0.05,VWS V14.01,2013-05-23 18:16:00,
2013-05-23 14:21:00,78.0,61.0,29.77,NNW,342,3.0,3.0,56,0.00,,---,0.05,VWS V14.01,2013-05-23 18:21:00,
2013-05-23 14:26:00,77.8,61.9,29.76,WNW,286,1.0,1.0,58,0.00,,---,0.05,VWS V14.01,2013-05-23 18:26:00,
2013-05-23 14:31:00,78.0,63.9,29.76,West,280,5.0,8.0,62,0.00,,---,0.05,VWS V14.01,2013-05-23 18:31:00,
2013-05-23 14:36:00,78.0,62.5,29.76,NW,309,1.0,3.0,59,0.00,,---,0.05,VWS V14.01,2013-05-23 18:36:00,
2013-05-23 14:41:00,78.3,62.8,29.76,WNW,286,4.0,5.0,59,0.00,,---,0.05,VWS V14.01,2013-05-23 18:41:00,
2013-05-23 14:46:00,78.6,61.6,29.76,West,265,2.0,5.0,56,0.00,,---,0.05,VWS V14.01,2013-05-23 18:46:00,
2013-05-23 14:51:00,78.9,62.4,29.75,West,273,2.0,2.0,57,0.00,,---,0.05,VWS V14.01,2013-05-23 18:51:00,
2013-05-23 14:56:00,79.0,63.9,29.75,West,272,1.0,2.0,60,0.00,,---,0.05,VWS V14.01,2013-05-23 18:56:00,
2013-05-23 15:01:00,79.4,62.3,29.75,WNW,290,0.0,2.0,56,0.00,,---,0.05,VWS V14.01,2013-05-23 19:01:00,
2013-05-23 15:06:00,79.7,61.1,29.74,WNW,285,2.0,3.0,53,0.00,,---,0.05,VWS V14.01,2013-05-23 19:06:00,
2013-05-23 15:11:00,79.8,63.2,29.75,West,279,6.0,8.0,57,0.00,,---,0.05,VWS V14.01,2013-05-23 19:11:00,
2013-05-23 15:16:00,79.8,61.2,29.74,SSW,198,1.0,3.0,53,0.00,,---,0.05,VWS V14.01,2013-05-23 19:16:00,
2013-05-23 15:21:00,79.7,60.0,29.74,NW,315,3.0,3.0,51,0.00,,---,0.05,VWS V14.01,2013-05-23 19:21:00,
2013-05-23 15:26:00,80.0,62.9,29.74,WNW,299,4.0,4.0,56,0.00,,---,0.05,VWS V14.01,2013-05-23 19:26:00,
2013-05-23 15:31:00,80.2,60.5,29.74,WNW,298,4.0,4.0,51,0.00,,---,0.05,VWS V14.01,2013-05-23 19:31:00,
2013-05-23 15:36:00,79.8,62.7,29.73,West,273,1.0,2.0,56,0.00,,---,0.05,VWS V14.01,2013-05-23 19:36:00,
2013-05-23 15:41:00,79.7,61.1,29.73,West,281,3.0,5.0,53,0.00,,---,0.05,VWS V14.01,2013-05-23 19:41:00,
2013-05-23 15:46:00,79.4,60.8,29.73,WNW,282,3.0,3.0,53,0.00,,---,0.05,VWS V14.01,2013-05-23 19:46:00,
2013-05-23 15:51:00,79.5,61.9,29.73,WNW,285,3.0,3.0,55,0.00,,---,0.05,VWS V14.01,2013-05-23 19:51:00,
2013-05-23 15:56:00,80.0,62.4,29.73,West,260,6.0,7.0,55,0.00,,---,0.05,VWS V14.01,2013-05-23 19:56:00,
2013-05-23 16:01:00,80.3,61.6,29.73,WNW,301,3.0,4.0,53,0.00,,---,0.05,VWS V14.01,2013-05-23 20:01:00,
2013-05-23 16:06:00,80.4,61.7,29.72,WNW,295,4.0,7.0,53,0.00,,---,0.05,VWS V14.01,2013-05-23 20:06:00,
2013-05-23 16:11:00,80.4,62.2,29.72,West,274,1.0,1.0,54,0.00,,---,0.05,VWS V14.01,2013-05-23 20:11:00,
2013-05-23 16:16:00,80.6,60.8,29.72,West,267,1.0,1.0,51,0.00,,---,0.05,VWS V14.01,2013-05-23 20:16:00,
2013-05-23 16:21:00,81.0,61.2,29.71,West,277,2.0,2.0,51,0.00,,---,0.05,VWS V14.01,2013-05-23 20:21:00,
2013-05-23 16:26:00,81.1,59.6,29.72,WNW,302,5.0,5.0,48,0.00,,---,0.05,VWS V14.01,2013-05-23 20:26:00,
2013-05-23 16:31:00,81.0,60.1,29.72,WNW,294,1.0,1.0,49,0.00,,---,0.05,VWS V14.01,2013-05-23 20:31:00,
2013-05-23 16:36:00,80.7,59.8,29.72,West,275,2.0,3.0,49,0.00,,---,0.05,VWS V14.01,2013-05-23 20:36:00,
2013-05-23 16:41:00,80.2,59.9,29.72,WSW,244,2.0,3.0,50,0.00,,---,0.05,VWS V14.01,2013-05-23 20:41:00,
2013-05-23 16:46:00,79.6,58.8,29.72,WNW,286,4.0,4.0,49,0.00,,---,0.05,VWS V14.01,2013-05-23 20:46:00,
2013-05-23 16:51:00,79.1,58.9,29.72,West,269,5.0,5.0,50,0.00,,---,0.05,VWS V14.01,2013-05-23 20:51:00,
2013-05-23 16:56:00,79.2,59.5,29.71,WNW,293,2.0,3.0,51,0.00,,---,0.05,VWS V14.01,2013-05-23 20:56:00,
2013-05-23 17:01:00,79.8,59.5,29.72,WNW,292,4.0,5.0,50,0.00,,---,0.05,VWS V14.01,2013-05-23 21:01:00,
2013-05-23 17:06:00,79.7,59.4,29.72,NW,323,5.0,5.0,50,0.00,,---,0.05,VWS V14.01,2013-05-23 21:06:00,
2013-05-23 17:11:00,79.3,60.2,29.72,NW,309,5.0,7.0,52,0.00,,---,0.05,VWS V14.01,2013-05-23 21:11:00,
2013-05-23 17:16:00,78.5,60.0,29.72,WNW,284,4.0,4.0,53,0.00,,---,0.05,VWS V14.01,2013-05-23 21:16:00,
2013-05-23 17:21:00,77.2,59.3,29.73,West,280,5.0,5.0,54,0.00,,---,0.05,VWS V14.01,2013-05-23 21:21:00,
2013-05-23 17:26:00,75.7,58.9,29.73,NW,307,2.0,2.0,56,0.00,,---,0.05,VWS V14.01,2013-05-23 21:26:00,
2013-05-23 17:31:00,74.4,59.2,29.74,WNW,290,10.0,11.0,59,0.00,,---,0.05,VWS V14.01,2013-05-23 21:31:00,
2013-05-23 17:35:00,72.8,58.6,29.76,WSW,248,8.0,11.0,61,0.00,,---,0.05,VWS V14.01,2013-05-23 21:35:00,
2013-05-23 17:40:00,70.4,58.9,29.77,WNW,294,7.0,8.0,67,0.04,,---,0.09,VWS V14.01,2013-05-23 21:40:00,
2013-05-23 17:45:00,68.5,60.6,29.77,WNW,299,4.0,9.0,76,0.11,,---,0.16,VWS V14.01,2013-05-23 21:45:00,
2013-05-23 17:50:00,66.6,59.9,29.76,WNW,298,3.0,5.0,79,0.13,,---,0.18,VWS V14.01,2013-05-23 21:50:00,
2013-05-23 17:55:00,65.5,60.2,29.74,WNW,282,5.0,9.0,83,0.13,,---,0.18,VWS V14.01,2013-05-23 21:55:00,
2013-05-23 18:00:00,65.4,61.4,29.75,NW,319,4.0,7.0,87,0.13,,---,0.18,VWS V14.01,2013-05-23 22:00:00,
2013-05-23 18:05:00,65.4,61.4,29.74,West,275,8.0,9.0,87,0.13,,---,0.18,VWS V14.01,2013-05-23 22:05:00,
2013-05-23 18:10:00,65.6,61.0,29.73,WNW,282,5.0,7.0,85,0.13,,---,0.18,VWS V14.01,2013-05-23 22:10:00,
2013-05-23 18:15:00,65.9,60.9,29.73,WNW,296,7.0,9.0,84,0.13,,---,0.18,VWS V14.01,2013-05-23 22:15:00,
2013-05-23 18:20:00,66.2,61.6,29.72,WNW,300,4.0,5.0,85,0.13,,---,0.18,VWS V14.01,2013-05-23 22:20:00,
2013-05-23 18:25:00,66.5,61.9,29.73,West,263,2.0,7.0,85,0.13,,---,0.18,VWS V14.01,2013-05-23 22:25:00,
2013-05-23 18:30:00,66.8,62.2,29.72,WNW,294,2.0,2.0,85,0.13,,---,0.18,VWS V14.01,2013-05-23 22:30:00,
2013-05-23 18:35:00,67.0,62.3,29.72,WNW,292,3.0,5.0,85,0.13,,---,0.18,VWS V14.01,2013-05-23 22:35:00,
2013-05-23 18:40:00,67.4,62.4,29.72,WNW,286,7.0,7.0,84,0.10,,---,0.18,VWS V14.01,2013-05-23 22:40:00,
2013-05-23 18:45:00,67.7,63.0,29.73,West,271,4.0,7.0,85,0.05,,---,0.18,VWS V14.01,2013-05-23 22:45:00,
2013-05-23 18:50:00,67.9,62.9,29.73,West,274,3.0,6.0,84,0.00,,---,0.18,VWS V14.01,2013-05-23 22:50:00,
2013-05-23 18:55:00,68.0,63.0,29.73,WNW,297,5.0,5.0,84,0.00,,---,0.18,VWS V14.01,2013-05-23 22:55:00,
2013-05-23 19:00:00,67.9,61.9,29.73,WNW,292,7.0,10.0,81,0.00,,---,0.18,VWS V14.01,2013-05-23 23:00:00,
2013-05-23 19:05:00,67.6,61.2,29.73,West,267,3.0,13.0,80,0.00,,---,0.18,VWS V14.01,2013-05-23 23:05:00,
2013-05-23 19:10:00,67.1,60.4,29.73,West,276,7.0,11.0,79,0.00,,---,0.18,VWS V14.01,2013-05-23 23:10:00,
2013-05-23 19:15:00,66.9,60.2,29.72,West,268,8.0,10.0,79,0.00,,---,0.18,VWS V14.01,2013-05-23 23:15:00,
2013-05-23 19:20:00,66.9,60.2,29.73,WSW,247,8.0,9.0,79,0.00,,---,0.18,VWS V14.01,2013-05-23 23:20:00,
2013-05-23 19:25:00,66.8,59.7,29.73,NW,310,8.0,16.0,78,0.00,,---,0.18,VWS V14.01,2013-05-23 23:25:00,
2013-05-23 19:30:00,66.7,59.6,29.73,West,274,5.0,7.0,78,0.00,,---,0.18,VWS V14.01,2013-05-23 23:30:00,
2013-05-23 19:35:00,66.5,59.8,29.74,NW,326,4.0,8.0,79,0.00,,---,0.18,VWS V14.01,2013-05-23 23:35:00,
2013-05-23 19:40:00,66.5,59.4,29.74,WNW,282,6.0,9.0,78,0.00,,---,0.18,VWS V14.01,2013-05-23 23:40:00,
2013-05-23 19:45:00,66.6,59.5,29.74,West,260,4.0,7.0,78,0.00,,---,0.18,VWS V14.01,2013-05-23 23:45:00,
2013-05-23 19:50:00,66.8,59.7,29.75,WNW,290,4.0,9.0,78,0.00,,---,0.18,VWS V14.01,2013-05-23 23:50:00,
2013-05-23 19:55:00,66.9,59.5,29.75,WNW,297,7.0,9.0,77,0.00,,---,0.18,VWS V14.01,2013-05-23 23:55:00,
2013-05-23 20:00:00,66.9,59.5,29.75,West,273,5.0,6.0,77,0.00,,---,0.18,VWS V14.01,2013-05-24 00:00:00,
2013-05-23 20:05:00,66.8,59.7,29.76,NNW,333,3.0,5.0,78,0.00,,---,0.18,VWS V14.01,2013-05-24 00:05:00,
2013-05-23 20:10:00,66.7,59.6,29.76,WNW,289,7.0,7.0,78,0.00,,---,0.18,VWS V14.01,2013-05-24 00:10:00,
2013-05-23 20:15:00,66.5,59.8,29.75,NNW,333,4.0,7.0,79,0.00,,---,0.18,VWS V14.01,2013-05-24 00:15:00,
2013-05-23 20:20:00,66.2,59.9,29.76,WNW,298,4.0,7.0,80,0.00,,---,0.18,VWS V14.01,2013-05-24 00:20:00,
2013-05-23 20:25:00,65.9,59.2,29.76,NW,304,6.0,14.0,79,0.00,,---,0.18,VWS V14.01,2013-05-24 00:25:00,
2013-05-23 20:30:00,65.8,59.5,29.76,West,275,4.0,9.0,80,0.00,,---,0.18,VWS V14.01,2013-05-24 00:30:00,
2013-05-23 20:35:00,65.6,59.3,29.75,West,262,6.0,8.0,80,0.00,,---,0.18,VWS V14.01,2013-05-24 00:35:00,
2013-05-23 20:40:00,65.4,59.4,29.75,WNW,287,3.0,9.0,81,0.00,,---,0.18,VWS V14.01,2013-05-24 00:40:00,
2013-05-23 20:45:00,65.3,59.3,29.75,West,277,3.0,8.0,81,0.00,,---,0.18,VWS V14.01,2013-05-24 00:45:00,
2013-05-23 20:50:00,65.2,59.2,29.76,WNW,290,3.0,5.0,81,0.00,,---,0.18,VWS V14.01,2013-05-24 00:50:00,
2013-05-23 20:55:00,65.1,59.5,29.76,NW,314,6.0,6.0,82,0.00,,---,0.18,VWS V14.01,2013-05-24 00:55:00,
2013-05-23 21:00:00,64.9,59.3,29.76,West,277,6.0,6.0,82,0.00,,---,0.18,VWS V14.01,2013-05-24 01:00:00,
2013-05-23 21:05:00,64.8,59.2,29.76,NW,315,4.0,10.0,82,0.00,,---,0.18,VWS V14.01,2013-05-24 01:05:00,
2013-05-23 21:10:00,64.8,59.2,29.75,WNW,290,3.0,4.0,82,0.00,,---,0.18,VWS V14.01,2013-05-24 01:10:00,
2013-05-23 21:15:00,64.8,59.2,29.75,WNW,298,2.0,4.0,82,0.00,,---,0.18,VWS V14.01,2013-05-24 01:15:00,
2013-05-23 21:20:00,64.7,59.1,29.75,North,349,3.0,4.0,82,0.00,,---,0.18,VWS V14.01,2013-05-24 01:20:00,
2013-05-23 21:25:00,64.6,59.3,29.75,West,278,2.0,4.0,83,0.00,,---,0.18,VWS V14.01,2013-05-24 01:25:00,
2013-05-23 21:30:00,64.5,59.2,29.76,WNW,290,1.0,3.0,83,0.00,,---,0.18,VWS V14.01,2013-05-24 01:30:00,
2013-05-23 21:35:00,64.4,59.1,29.76,NW,317,3.0,5.0,83,0.00,,---,0.18,VWS V14.01,2013-05-24 01:35:00,
2013-05-23 21:40:00,64.4,59.1,29.76,WNW,302,3.0,4.0,83,0.00,,---,0.18,VWS V14.01,2013-05-24 01:40:00,
2013-05-23 21:45:00,64.3,59.0,29.77,West,270,3.0,5.0,83,0.00,,---,0.18,VWS V14.01,2013-05-24 01:45:00,
2013-05-23 21:50:00,64.3,59.0,29.78,WNW,296,0.0,2.0,83,0.00,,---,0.18,VWS V14.01,2013-05-24 01:50:00,
2013-05-23 21:55:00,64.3,59.0,29.78,WNW,297,0.0,2.0,83,0.00,,---,0.18,VWS V14.01,2013-05-24 01:55:00,
2013-05-23 22:00:00,64.3,59.0,29.78,WNW,297,3.0,3.0,83,0.00,,---,0.18,VWS V14.01,2013-05-24 02:00:00,
2013-05-23 22:05:00,64.2,59.3,29.78,WNW,297,2.0,2.0,84,0.00,,---,0.18,VWS V14.01,2013-05-24 02:05:00,
2013-05-23 22:10:00,64.1,59.2,29.78,NNW,333,0.0,3.0,84,0.00,,---,0.18,VWS V14.01,2013-05-24 02:10:00,
2013-05-23 22:15:00,64.0,59.1,29.78,WNW,290,5.0,5.0,84,0.00,,---,0.18,VWS V14.01,2013-05-24 02:15:00,
2013-05-23 22:20:00,63.9,59.0,29.78,NW,325,2.0,3.0,84,0.00,,---,0.18,VWS V14.01,2013-05-24 02:20:00,
2013-05-23 22:25:00,63.9,59.0,29.78,NW,316,1.0,2.0,84,0.00,,---,0.18,VWS V14.01,2013-05-24 02:25:00,
2013-05-23 22:30:00,63.8,58.9,29.78,WNW,292,1.0,4.0,84,0.00,,---,0.18,VWS V14.01,2013-05-24 02:30:00,
2013-05-23 22:35:00,63.8,58.9,29.78,WNW,286,3.0,4.0,84,0.00,,---,0.18,VWS V14.01,2013-05-24 02:35:00,
2013-05-23 22:40:00,63.8,58.9,29.78,West,265,6.0,6.0,84,0.00,,---,0.18,VWS V14.01,2013-05-24 02:40:00,
2013-05-23 22:45:00,63.7,58.8,29.78,WNW,295,2.0,4.0,84,0.00,,---,0.18,VWS V14.01,2013-05-24 02:45:00,
2013-05-23 22:50:00,63.7,58.8,29.78,WNW,295,0.0,0.0,84,0.00,,---,0.18,VWS V14.01,2013-05-24 02:50:00,
2013-05-23 22:55:00,63.7,58.8,29.78,West,261,2.0,3.0,84,0.00,,---,0.18,VWS V14.01,2013-05-24 02:55:00,
2013-05-23 23:00:00,63.6,58.7,29.77,West,261,0.0,2.0,84,0.00,,---,0.18,VWS V14.01,2013-05-24 03:00:00,
2013-05-23 23:05:00,63.6,59.0,29.78,West,261,1.0,3.0,85,0.00,,---,0.18,VWS V14.01,2013-05-24 03:05:00,
2013-05-23 23:10:00,63.4,58.5,29.78,NNW,331,3.0,5.0,84,0.00,,---,0.18,VWS V14.01,2013-05-24 03:10:00,
2013-05-23 23:15:00,63.4,58.8,29.78,NW,304,7.0,7.0,85,0.00,,---,0.18,VWS V14.01,2013-05-24 03:15:00,
2013-05-23 23:20:00,63.4,58.5,29.78,West,279,1.0,7.0,84,0.00,,---,0.18,VWS V14.01,2013-05-24 03:20:00,
2013-05-23 23:25:00,63.5,58.2,29.77,NW,313,7.0,7.0,83,0.00,,---,0.18,VWS V14.01,2013-05-24 03:25:00,
2013-05-23 23:30:00,63.6,58.7,29.77,NW,313,7.0,7.0,84,0.00,,---,0.18,VWS V14.01,2013-05-24 03:30:00,
2013-05-23 23:35:00,63.5,58.6,29.77,West,281,5.0,7.0,84,0.00,,---,0.18,VWS V14.01,2013-05-24 03:35:00,
2013-05-23 23:40:00,63.5,58.2,29.78,WNW,294,1.0,6.0,83,0.00,,---,0.18,VWS V14.01,2013-05-24 03:40:00,
2013-05-23 23:45:00,63.4,57.5,29.77,NNE,21,10.0,10.0,82,0.00,,---,0.18,VWS V14.01,2013-05-24 03:45:00,
2013-05-23 23:50:00,63.3,57.7,29.77,WSW,244,6.0,11.0,82,0.00,,---,0.18,VWS V14.01,2013-05-24 03:50:00,
2013-05-23 23:55:00,63.2,57.6,29.77,North,360,5.0,6.0,82,0.00,,---,0.18,VWS V14.01,2013-05-24 03:55:00,